Time;durP1;ratioP1;P1;durP2;ratioP2;P2;SDS_P1;SDS_P2;PMS_P1;PMS_P2;Temp;Humidity;BMP_temperature;BMP_pressure;BME280_temperature;BME280_humidity;BME280_pressure;Samples;Min_cycle;Max_cycle;Signal;HPM_P1;HPM_P2
2022/06/18 00:01:33;;;;;;;2.63;2.42;;;22.60;91.90;;;;;;5017693;28;20221;-74
2022/06/18 00:04:01;;;;;;;4.25;2.50;;;22.60;92.00;;;;;;5011317;28;20194;-74
2022/06/18 00:06:30;;;;;;;2.53;2.33;;;22.60;92.20;;;;;;5020359;28;20236;-74
2022/06/18 00:08:57;;;;;;;2.78;2.58;;;22.60;92.40;;;;;;5030418;28;20204;-74
2022/06/18 00:14:11;;;;;;;4.72;3.13;;;22.50;92.60;;;;;;5030215;28;20694;-75
2022/06/18 00:16:38;;;;;;;3.67;3.10;;;22.50;92.80;;;;;;5030241;28;20773;-75
2022/06/18 00:19:05;;;;;;;2.78;2.60;;;22.50;93.00;;;;;;5030573;28;20212;-74
2022/06/18 00:21:32;;;;;;;4.32;2.90;;;22.50;93.20;;;;;;5030038;28;20216;-75
2022/06/18 00:23:58;;;;;;;5.40;2.90;;;22.50;93.30;;;;;;5030326;28;20222;-75
2022/06/18 00:26:27;;;;;;;4.82;2.75;;;22.50;93.10;;;;;;5030304;28;20311;-75
2022/06/18 00:28:54;;;;;;;4.03;2.70;;;22.40;92.90;;;;;;5029119;28;20201;-75
2022/06/18 00:31:21;;;;;;;2.55;2.45;;;22.40;92.60;;;;;;5029989;28;20744;-74
2022/06/18 00:33:48;;;;;;;2.70;2.60;;;22.40;92.50;;;;;;5029616;28;20299;-74
2022/06/18 00:36:17;;;;;;;4.10;2.70;;;22.40;92.50;;;;;;5029833;28;20228;-74
2022/06/18 00:38:46;;;;;;;5.70;2.70;;;22.30;92.50;;;;;;5029603;28;20200;-73
2022/06/18 00:41:17;;;;;;;2.50;2.30;;;22.30;92.60;;;;;;5030028;28;20209;-74
2022/06/18 00:43:53;;;;;;;5.72;2.67;;;22.30;92.50;;;;;;5029833;28;20192;-75
2022/06/18 00:46:25;;;;;;;2.45;2.35;;;22.30;92.40;;;;;;5029958;28;20188;-75
2022/06/18 00:49:00;;;;;;;3.63;2.20;;;22.30;92.50;;;;;;5030229;28;20209;-74
2022/06/18 00:51:31;;;;;;;2.28;2.17;;;22.20;92.60;;;;;;5029873;28;20554;-74
2022/06/18 00:54:07;;;;;;;2.95;2.35;;;22.20;92.80;;;;;;5029673;28;20224;-74
2022/06/18 00:56:39;;;;;;;2.60;2.40;;;22.20;92.90;;;;;;5029518;28;20204;-74
2022/06/18 00:59:14;;;;;;;5.55;2.60;;;22.20;92.90;;;;;;5029801;28;20216;-74
2022/06/18 01:01:45;;;;;;;4.40;2.63;;;22.10;92.60;;;;;;5029698;28;20192;-73
2022/06/18 01:04:24;;;;;;;2.40;2.30;;;22.10;92.40;;;;;;5029214;28;20304;-74
2022/06/18 01:06:56;;;;;;;3.38;2.40;;;22.10;92.40;;;;;;5029366;28;20735;-74
2022/06/18 01:09:23;;;;;;;2.85;2.35;;;22.10;92.50;;;;;;5029172;28;20205;-74
2022/06/18 01:11:51;;;;;;;2.28;1.92;;;22.00;92.50;;;;;;5029262;28;20777;-73
2022/06/18 01:14:19;;;;;;;2.60;2.40;;;22.00;92.70;;;;;;5028683;28;20702;-73
2022/06/18 01:16:46;;;;;;;3.08;2.35;;;22.00;92.90;;;;;;5028853;28;20559;-74
2022/06/18 01:19:22;;;;;;;2.70;2.50;;;22.00;92.90;;;;;;5019410;28;20297;-73
2022/06/18 01:21:56;;;;;;;2.53;2.42;;;22.00;92.90;;;;;;5012038;28;20250;-73
2022/06/18 01:24:31;;;;;;;3.05;2.35;;;22.00;93.00;;;;;;5028801;28;20204;-73
2022/06/18 01:26:58;;;;;;;3.33;2.53;;;21.90;93.20;;;;;;5028724;28;20659;-74
2022/06/18 01:29:25;;;;;;;2.67;2.38;;;21.90;93.40;;;;;;5028522;28;20663;-74
2022/06/18 01:31:52;;;;;;;2.53;2.35;;;21.90;93.50;;;;;;5028612;28;20211;-74
2022/06/18 01:34:20;;;;;;;2.55;2.40;;;21.80;93.20;;;;;;5028410;28;20236;-73
2022/06/18 01:36:47;;;;;;;3.17;2.50;;;21.80;93.00;;;;;;5028923;28;20208;-73
2022/06/18 01:39:18;;;;;;;4.10;2.50;;;21.80;92.70;;;;;;5028164;28;20865;-75
2022/06/18 01:41:53;;;;;;;3.20;2.70;;;21.80;92.50;;;;;;5025967;28;20189;-74
2022/06/18 01:44:24;;;;;;;2.57;2.40;;;21.80;92.60;;;;;;5028490;28;20781;-74
2022/06/18 01:46:54;;;;;;;2.83;2.58;;;21.70;92.80;;;;;;5028756;28;20534;-74
2022/06/18 01:49:26;;;;;;;2.67;2.47;;;21.70;92.90;;;;;;5018095;28;20314;-74
2022/06/18 01:51:56;;;;;;;4.18;2.55;;;21.70;92.60;;;;;;5008828;28;20202;-74
2022/06/18 01:54:28;;;;;;;2.42;2.33;;;21.60;92.60;;;;;;5024590;28;20327;-74
2022/06/18 01:57:01;;;;;;;2.92;2.38;;;21.60;92.80;;;;;;5028599;28;20211;-74
2022/06/18 01:59:32;;;;;;;2.50;2.30;;;21.60;93.10;;;;;;5028290;28;20216;-74
2022/06/18 02:01:59;;;;;;;2.60;2.40;;;21.60;93.40;;;;;;5028537;28;20190;-74
2022/06/18 02:04:28;;;;;;;2.30;2.20;;;21.60;93.90;;;;;;5028258;28;20573;-74
2022/06/18 02:06:55;;;;;;;4.00;2.45;;;21.50;93.80;;;;;;5028091;28;20325;-75
2022/06/18 02:09:33;;;;;;;2.75;2.30;;;21.50;94.00;;;;;;5027976;28;20206;-74
2022/06/18 02:12:04;;;;;;;2.40;2.20;;;21.50;94.50;;;;;;5028420;28;20239;-74
2022/06/18 02:14:34;;;;;;;2.13;2.03;;;21.50;94.80;;;;;;5028172;28;20247;-74
2022/06/18 02:17:04;;;;;;;2.17;1.95;;;21.40;94.80;;;;;;5028077;28;20282;-74
2022/06/18 02:19:33;;;;;;;2.60;2.30;;;21.40;94.90;;;;;;5025404;28;20219;-74
2022/06/18 02:22:00;;;;;;;3.80;2.08;;;21.50;94.70;;;;;;5028040;28;21084;-75
2022/06/18 02:24:28;;;;;;;2.70;2.27;;;21.50;94.80;;;;;;5027535;28;20686;-74
2022/06/18 02:26:56;;;;;;;2.05;1.90;;;21.50;94.70;;;;;;5027823;28;20200;-74
2022/06/18 02:29:28;;;;;;;2.00;1.90;;;21.50;94.20;;;;;;5027814;28;20209;-74
2022/06/18 02:31:55;;;;;;;2.30;2.10;;;21.50;94.40;;;;;;5028110;28;20608;-73
2022/06/18 02:34:26;;;;;;;2.25;2.15;;;21.40;94.10;;;;;;5027760;28;20212;-74
2022/06/18 02:36:53;;;;;;;2.40;2.20;;;21.50;94.30;;;;;;5028024;28;20287;-74
2022/06/18 02:39:28;;;;;;;2.70;2.35;;;21.50;94.60;;;;;;5027744;28;20211;-74
2022/06/18 02:41:59;;;;;;;2.63;2.42;;;21.50;94.70;;;;;;5027854;28;20681;-73
2022/06/18 02:44:27;;;;;;;3.00;2.30;;;21.40;95.00;;;;;;5019698;28;20224;-73
2022/06/18 02:46:55;;;;;;;2.80;1.95;;;21.40;94.90;;;;;;5028063;28;20577;-73
2022/06/18 02:49:22;;;;;;;2.28;2.08;;;21.40;94.80;;;;;;5027232;28;20531;-73
2022/06/18 02:51:49;;;;;;;3.03;2.35;;;21.40;94.70;;;;;;5029746;28;20303;-74
2022/06/18 02:54:19;;;;;;;4.00;2.27;;;21.40;94.50;;;;;;5031438;28;20220;-74
2022/06/18 02:56:46;;;;;;;2.58;2.40;;;21.40;94.50;;;;;;5031437;28;20208;-73
2022/06/18 02:59:13;;;;;;;2.38;2.25;;;21.40;94.60;;;;;;5031597;28;20212;-74
2022/06/18 03:01:41;;;;;;;2.73;2.20;;;21.40;94.30;;;;;;5031868;28;20318;-74
2022/06/18 03:04:09;;;;;;;3.00;2.30;;;21.30;94.40;;;;;;5031769;28;20223;-74
2022/06/18 03:06:36;;;;;;;3.17;2.53;;;21.40;94.80;;;;;;5031187;28;20277;-73
2022/06/18 03:09:04;;;;;;;2.87;2.67;;;21.30;94.80;;;;;;5031447;28;20296;-74
2022/06/18 03:14:18;;;;;;;3.45;2.65;;;21.30;94.80;;;;;;5031139;28;20192;-76
2022/06/18 03:16:47;;;;;;;2.90;2.70;;;21.30;94.90;;;;;;5023629;28;20236;-76
2022/06/18 03:19:26;;;;;;;2.80;2.60;;;21.30;95.00;;;;;;5020771;28;20658;-75
2022/06/18 03:21:56;;;;;;;3.47;2.77;;;21.20;94.90;;;;;;5030608;28;20259;-76
2022/06/18 03:24:23;;;;;;;3.27;3.00;;;21.20;95.30;;;;;;5030983;28;20201;-76
2022/06/18 03:26:51;;;;;;;4.03;3.10;;;21.20;95.70;;;;;;5031477;28;20215;-75
2022/06/18 03:29:18;;;;;;;2.93;2.73;;;21.20;95.50;;;;;;5031122;28;20205;-72
2022/06/18 03:31:46;;;;;;;3.40;2.93;;;21.20;95.20;;;;;;5030268;28;20219;-72
2022/06/18 03:34:13;;;;;;;3.10;2.90;;;21.20;95.40;;;;;;5030598;28;20663;-72
2022/06/18 03:36:40;;;;;;;3.17;2.80;;;21.20;95.40;;;;;;5030288;28;20232;-72
2022/06/18 03:39:09;;;;;;;3.60;2.93;;;21.20;95.40;;;;;;5030304;28;20208;-75
2022/06/18 03:41:35;;;;;;;3.83;3.07;;;21.20;95.60;;;;;;5030669;28;20201;-74
2022/06/18 03:44:02;;;;;;;3.30;2.97;;;21.20;95.90;;;;;;5030575;28;20742;-74
2022/06/18 03:46:29;;;;;;;3.13;2.93;;;21.20;95.90;;;;;;5030869;28;20215;-74
2022/06/18 03:49:00;;;;;;;4.87;3.10;;;21.10;96.40;;;;;;5030458;28;20568;-74
2022/06/18 03:51:28;;;;;;;4.27;3.00;;;21.10;96.00;;;;;;5030503;28;20197;-74
2022/06/18 03:53:55;;;;;;;3.07;2.87;;;21.20;96.00;;;;;;5030108;28;20671;-75
2022/06/18 03:56:24;;;;;;;3.45;3.15;;;21.10;96.00;;;;;;5030562;28;20228;-74
2022/06/18 03:58:52;;;;;;;3.43;2.87;;;21.10;95.70;;;;;;5030312;28;20309;-74
2022/06/18 04:01:22;;;;;;;2.90;2.70;;;21.10;95.70;;;;;;5030868;28;20579;-74
2022/06/18 04:03:49;;;;;;;2.92;2.72;;;21.20;95.70;;;;;;5029335;28;20209;-75
2022/06/18 04:06:17;;;;;;;2.30;2.10;;;21.10;96.10;;;;;;5030033;28;20203;-73
2022/06/18 04:08:45;;;;;;;2.83;2.20;;;21.10;95.70;;;;;;5029897;28;20299;-73
2022/06/18 04:11:12;;;;;;;2.30;2.10;;;21.10;95.90;;;;;;5030060;28;20221;-73
2022/06/18 04:13:39;;;;;;;4.53;2.40;;;21.10;96.00;;;;;;5030408;28;20575;-73
2022/06/18 04:16:09;;;;;;;2.07;1.97;;;21.10;96.00;;;;;;5027727;28;20255;-73
2022/06/18 04:18:37;;;;;;;3.20;2.23;;;21.10;96.10;;;;;;5029324;28;20209;-74
2022/06/18 04:21:07;;;;;;;3.38;1.90;;;21.10;96.00;;;;;;5030298;28;20243;-74
2022/06/18 04:23:35;;;;;;;2.87;2.20;;;21.20;95.70;;;;;;5029432;28;20205;-74
2022/06/18 04:26:05;;;;;;;3.20;2.10;;;21.10;95.80;;;;;;5030185;28;20205;-74
2022/06/18 04:28:32;;;;;;;2.05;1.95;;;21.10;95.90;;;;;;5029782;28;20224;-74
2022/06/18 04:30:59;;;;;;;1.83;1.73;;;21.10;95.70;;;;;;5029663;28;20300;-74
2022/06/18 04:33:26;;;;;;;5.67;2.50;;;21.10;95.90;;;;;;5029881;28;20304;-74
2022/06/18 04:35:53;;;;;;;2.00;1.90;;;21.10;96.00;;;;;;5029748;28;20225;-73
2022/06/18 04:38:20;;;;;;;3.45;2.03;;;21.10;96.20;;;;;;5028664;28;20197;-74
2022/06/18 04:40:49;;;;;;;2.60;1.87;;;21.10;96.00;;;;;;5029806;28;20290;-74
2022/06/18 04:43:16;;;;;;;2.27;1.93;;;21.10;96.30;;;;;;5029833;28;20481;-74
2022/06/18 04:45:42;;;;;;;1.87;1.77;;;21.10;95.70;;;;;;5029771;28;20216;-75
2022/06/18 04:48:10;;;;;;;4.35;2.20;;;21.10;96.00;;;;;;5029542;28;20208;-74
2022/06/18 04:50:39;;;;;;;2.47;1.90;;;21.10;95.90;;;;;;5029813;28;20208;-74
2022/06/18 04:53:08;;;;;;;2.57;2.30;;;21.20;96.20;;;;;;5029085;28;20197;-73
2022/06/18 04:55:35;;;;;;;2.13;1.80;;;21.10;96.30;;;;;;5029035;28;20314;-73
2022/06/18 04:58:04;;;;;;;2.00;1.87;;;21.20;96.50;;;;;;5029586;28;20562;-73
2022/06/18 05:00:31;;;;;;;3.33;1.80;;;21.20;96.50;;;;;;5029387;28;20215;-75
2022/06/18 05:02:58;;;;;;;1.70;1.60;;;21.20;96.70;;;;;;5029375;28;20234;-74
2022/06/18 05:05:26;;;;;;;3.43;2.03;;;21.20;96.90;;;;;;5029297;28;20209;-74
2022/06/18 05:07:54;;;;;;;3.13;2.10;;;21.20;96.90;;;;;;5028815;28;20655;-74
2022/06/18 05:10:21;;;;;;;2.30;2.20;;;21.20;97.10;;;;;;5028914;28;20656;-75
2022/06/18 05:12:48;;;;;;;4.07;2.43;;;21.30;97.50;;;;;;5029346;28;20209;-75
2022/06/18 05:15:17;;;;;;;2.10;2.00;;;21.30;97.50;;;;;;5028418;28;20295;-75
2022/06/18 05:17:45;;;;;;;2.38;2.28;;;21.30;97.60;;;;;;5029153;28;20193;-73
2022/06/18 05:20:15;;;;;;;2.23;2.03;;;21.30;97.70;;;;;;5028901;28;20204;-72
2022/06/18 05:22:42;;;;;;;2.40;2.30;;;21.40;97.80;;;;;;5028975;28;20240;-72
2022/06/18 05:25:10;;;;;;;2.35;2.25;;;21.40;97.80;;;;;;5028610;28;20235;-72
2022/06/18 05:27:37;;;;;;;2.23;2.13;;;21.40;98.10;;;;;;5028391;28;20201;-72
2022/06/18 05:30:06;;;;;;;3.20;2.60;;;21.40;98.30;;;;;;5028295;28;20988;-72
2022/06/18 05:32:34;;;;;;;3.35;2.10;;;21.40;97.90;;;;;;5028586;28;20208;-72
2022/06/18 05:35:04;;;;;;;3.70;2.30;;;21.50;97.90;;;;;;5028560;28;20674;-73
2022/06/18 05:37:32;;;;;;;2.63;2.42;;;21.50;97.80;;;;;;5028448;28;21079;-72
2022/06/18 05:39:59;;;;;;;3.58;2.50;;;21.50;97.90;;;;;;5027984;28;20303;-71
2022/06/18 05:42:26;;;;;;;2.23;2.13;;;21.50;97.90;;;;;;5024887;28;20224;-73
2022/06/18 05:44:54;;;;;;;2.55;2.35;;;21.50;97.90;;;;;;5026356;28;20205;-72
2022/06/18 05:47:23;;;;;;;3.65;2.20;;;21.60;97.80;;;;;;5026312;28;20587;-72
2022/06/18 05:49:53;;;;;;;2.53;2.33;;;21.60;98.10;;;;;;5026294;28;20244;-73
2022/06/18 05:52:21;;;;;;;2.97;2.10;;;21.60;98.10;;;;;;5025812;28;20553;-73
2022/06/18 05:54:50;;;;;;;2.75;2.65;;;21.70;98.30;;;;;;5025985;28;20324;-73
2022/06/18 05:57:18;;;;;;;3.20;2.78;;;21.70;98.30;;;;;;5026381;28;20286;-73
2022/06/18 05:59:45;;;;;;;2.95;2.38;;;21.70;98.10;;;;;;5026491;28;20204;-72
2022/06/18 06:02:14;;;;;;;2.90;2.70;;;21.70;98.30;;;;;;5025225;28;20858;-72
2022/06/18 06:04:42;;;;;;;4.93;2.70;;;21.80;98.30;;;;;;5026599;28;20259;-72
2022/06/18 06:07:13;;;;;;;7.13;2.70;;;21.80;98.20;;;;;;5026546;28;20208;-72
2022/06/18 06:12:24;;;;;;;3.78;2.63;;;21.90;98.10;;;;;;5025509;28;20671;-72
2022/06/18 06:14:51;;;;;;;2.83;2.63;;;21.90;98.20;;;;;;5025958;28;20219;-73
2022/06/18 06:17:22;;;;;;;7.53;3.13;;;21.90;98.00;;;;;;5025070;28;20237;-72
2022/06/18 06:19:49;;;;;;;4.47;3.20;;;22.00;97.90;;;;;;5026028;28;20220;-72
2022/06/18 06:22:17;;;;;;;2.90;2.70;;;22.00;97.80;;;;;;5025786;28;20215;-71
2022/06/18 06:24:44;;;;;;;3.08;2.88;;;22.00;97.70;;;;;;5025303;28;20643;-73
2022/06/18 06:27:12;;;;;;;4.25;2.85;;;22.10;97.80;;;;;;5024722;28;20217;-72
2022/06/18 06:29:38;;;;;;;4.55;2.50;;;22.10;97.10;;;;;;5025223;28;20204;-70
2022/06/18 06:32:06;;;;;;;2.88;2.25;;;22.20;95.80;;;;;;5025096;28;20205;-71
2022/06/18 06:34:33;;;;;;;2.78;2.58;;;22.40;93.80;;;;;;5025535;28;20213;-72
2022/06/18 06:37:00;;;;;;;2.20;2.10;;;22.50;93.60;;;;;;5025399;28;20232;-72
2022/06/18 06:39:28;;;;;;;3.75;2.53;;;22.60;93.60;;;;;;5025355;28;20564;-72
2022/06/18 06:41:55;;;;;;;2.88;2.20;;;22.60;94.50;;;;;;5025794;28;20216;-71
2022/06/18 06:44:21;;;;;;;2.63;2.38;;;22.60;94.80;;;;;;5026288;28;20209;-71
2022/06/18 06:46:48;;;;;;;2.25;2.10;;;22.80;93.60;;;;;;5026365;28;20580;-71
2022/06/18 06:49:15;;;;;;;4.15;2.05;;;23.00;92.50;;;;;;5025289;28;20209;-72
2022/06/18 06:51:42;;;;;;;2.50;2.30;;;23.10;93.40;;;;;;5027154;28;20208;-72
2022/06/18 06:54:09;;;;;;;2.20;2.00;;;23.10;93.70;;;;;;5027251;28;20664;-72
2022/06/18 06:59:23;;;;;;;2.42;1.75;;;23.20;92.60;;;;;;5027212;28;20216;-71
2022/06/18 07:01:52;;;;;;;3.65;1.90;;;23.30;92.40;;;;;;5028010;28;20213;-72
2022/06/18 07:04:19;;;;;;;2.78;2.58;;;23.30;92.40;;;;;;5027557;28;20296;-72
2022/06/18 07:06:46;;;;;;;2.13;1.92;;;23.20;93.90;;;;;;5027623;28;20205;-72
2022/06/18 07:09:12;;;;;;;3.55;2.17;;;23.20;93.80;;;;;;5027422;28;20484;-73
2022/06/18 07:11:41;;;;;;;1.80;1.70;;;23.30;92.30;;;;;;5027838;28;20315;-72
2022/06/18 07:14:08;;;;;;;5.80;1.98;;;23.60;91.90;;;;;;5027329;28;20663;-71
2022/06/18 07:16:35;;;;;;;2.00;1.90;;;23.70;91.80;;;;;;5027565;28;20706;-71
2022/06/18 07:19:02;;;;;;;4.20;2.13;;;23.70;92.30;;;;;;5027650;28;20217;-71
2022/06/18 07:21:33;;;;;;;1.73;1.58;;;23.60;93.80;;;;;;5027791;28;20213;-71
2022/06/18 07:24:00;;;;;;;3.80;1.67;;;23.80;91.60;;;;;;5027238;28;20204;-71
2022/06/18 07:26:27;;;;;;;4.05;1.73;;;23.90;91.60;;;;;;5027105;28;20205;-72
2022/06/18 07:28:55;;;;;;;5.35;1.67;;;24.20;91.10;;;;;;5027256;28;20213;-72
2022/06/18 07:31:27;;;;;;;3.80;1.40;;;24.30;90.80;;;;;;5027340;28;20212;-71
2022/06/18 07:33:55;;;;;;;5.10;1.70;;;24.50;90.30;;;;;;5027093;28;20640;-72
2022/06/18 07:36:21;;;;;;;2.65;1.75;;;24.60;90.90;;;;;;5027843;28;20328;-71
2022/06/18 07:38:48;;;;;;;1.73;1.55;;;24.70;90.10;;;;;;5030228;28;20208;-71
2022/06/18 07:41:17;;;;;;;1.83;1.58;;;24.70;90.40;;;;;;5030930;28;20223;-71
2022/06/18 07:43:50;;;;;;;4.30;1.60;;;24.80;90.30;;;;;;5030950;28;20201;-71
2022/06/18 07:46:19;;;;;;;3.53;1.55;;;25.00;90.10;;;;;;5030841;28;20188;-71
2022/06/18 07:48:45;;;;;;;1.23;1.23;;;25.00;90.40;;;;;;5030367;28;20208;-71
2022/06/18 07:51:13;;;;;;;3.92;1.60;;;25.00;90.40;;;;;;5030612;28;20205;-72
2022/06/18 07:53:40;;;;;;;3.90;1.60;;;24.90;90.50;;;;;;5030025;28;20710;-71
2022/06/18 07:56:08;;;;;;;6.40;5.78;;;25.00;90.40;;;;;;5030254;28;20998;-71
2022/06/18 07:58:35;;;;;;;8.93;7.68;;;24.90;90.80;;;;;;5030289;28;20554;-71
2022/06/18 08:01:02;;;;;;;2.45;1.85;;;25.00;90.50;;;;;;5030608;28;20316;-71
2022/06/18 08:03:30;;;;;;;5.95;2.42;;;25.00;90.90;;;;;;5030320;28;20212;-71
2022/06/18 08:05:57;;;;;;;4.00;1.50;;;25.10;90.60;;;;;;5030289;28;20303;-71
2022/06/18 08:08:24;;;;;;;18.33;2.83;;;25.00;90.50;;;;;;5029994;28;20215;-71
2022/06/18 08:10:53;;;;;;;2.20;1.55;;;25.10;91.20;;;;;;5030101;28;20711;-71
2022/06/18 08:13:21;;;;;;;3.13;1.63;;;25.00;91.00;;;;;;5030099;28;20227;-71
2022/06/18 08:15:49;;;;;;;2.25;1.50;;;24.90;91.40;;;;;;5029544;28;20247;-72
2022/06/18 08:18:16;;;;;;;2.20;1.42;;;24.80;91.40;;;;;;5028123;28;20323;-71
2022/06/18 08:20:45;;;;;;;2.47;1.85;;;24.70;91.80;;;;;;5020509;28;20662;-72
2022/06/18 08:23:12;;;;;;;4.55;1.73;;;24.90;91.30;;;;;;5029414;28;20738;-71
2022/06/18 08:25:42;;;;;;;4.22;1.70;;;25.10;91.20;;;;;;5029827;28;20208;-72
2022/06/18 08:28:11;;;;;;;26.77;3.45;;;25.20;93.40;;;;;;5029711;28;20216;-71
2022/06/18 08:30:39;;;;;;;1.80;1.60;;;25.50;91.30;;;;;;5029746;28;20208;-72
2022/06/18 08:33:06;;;;;;;1.85;1.75;;;25.70;90.70;;;;;;5029617;28;20204;-71
2022/06/18 08:35:36;;;;;;;1.80;1.40;;;25.80;91.30;;;;;;5029828;28;20219;-71
2022/06/18 08:38:05;;;;;;;2.13;1.50;;;25.70;91.80;;;;;;5029527;28;20225;-71
2022/06/18 08:40:50;;;;;;;4.78;1.60;;;25.80;90.90;;;;;;5029524;28;20575;-72
2022/06/18 08:43:30;;;;;;;1.80;1.70;;;26.20;90.80;;;;;;5029375;28;20662;-72
2022/06/18 08:46:07;;;;;;;3.63;1.58;;;26.40;90.50;;;;;;5029600;28;20976;-72
2022/06/18 08:48:54;;;;;;;1.88;1.77;;;26.70;90.40;;;;;;5025921;28;20209;-72
2022/06/18 08:51:38;;;;;;;2.53;1.60;;;27.00;89.80;;;;;;5009907;28;20197;-72
2022/06/18 08:54:19;;;;;;;3.47;1.70;;;27.00;90.40;;;;;;5016785;28;20189;-72
2022/06/18 08:56:52;;;;;;;1.73;1.40;;;27.20;89.70;;;;;;5029474;28;20225;-72
2022/06/18 08:59:30;;;;;;;4.10;1.42;;;27.30;89.00;;;;;;5028680;28;20201;-71
2022/06/18 09:02:06;;;;;;;4.55;1.75;;;27.30;89.20;;;;;;5030144;28;20701;-72
2022/06/18 09:04:49;;;;;;;2.35;1.77;;;27.20;89.30;;;;;;5029408;28;20201;-72
2022/06/18 09:07:44;;;;;;;2.45;1.40;;;27.30;89.60;;;;;;5029367;28;20243;-71
2022/06/18 09:10:22;;;;;;;2.80;1.75;;;27.10;89.60;;;;;;5021817;28;20220;-72
2022/06/18 09:12:53;;;;;;;2.47;1.77;;;27.00;89.60;;;;;;5028508;28;20734;-71
2022/06/18 09:15:25;;;;;;;3.75;1.55;;;27.20;89.90;;;;;;5028333;28;20205;-72
2022/06/18 09:17:58;;;;;;;5.38;1.90;;;27.20;89.80;;;;;;5028465;28;20221;-72
2022/06/18 09:20:30;;;;;;;6.00;5.60;;;27.40;89.50;;;;;;5028877;28;20311;-72
2022/06/18 09:23:04;;;;;;;7.97;7.35;;;27.60;89.80;;;;;;5028578;28;20752;-72
2022/06/18 09:25:41;;;;;;;1.92;1.80;;;27.50;89.50;;;;;;5028812;28;20542;-72
2022/06/18 09:28:12;;;;;;;2.38;1.60;;;27.60;89.10;;;;;;5028688;28;20219;-72
2022/06/18 09:30:42;;;;;;;2.92;2.13;;;27.80;89.20;;;;;;5028415;28;20208;-72
2022/06/18 09:33:13;;;;;;;3.88;1.88;;;27.90;89.80;;;;;;5028901;28;20236;-72
2022/06/18 09:35:44;;;;;;;2.05;1.95;;;27.90;89.90;;;;;;5028960;28;20193;-72
2022/06/18 09:38:18;;;;;;;2.33;1.63;;;28.00;89.40;;;;;;5028842;28;20229;-71
2022/06/18 09:40:50;;;;;;;2.22;2.03;;;28.20;89.00;;;;;;5028589;28;20375;-72
2022/06/18 09:43:28;;;;;;;3.60;2.00;;;28.10;89.00;;;;;;5028453;28;20200;-72
2022/06/18 09:45:57;;;;;;;3.13;1.90;;;28.20;88.60;;;;;;5028467;28;20193;-71
2022/06/18 09:48:24;;;;;;;3.05;2.22;;;28.20;88.80;;;;;;5028575;28;20204;-72
2022/06/18 09:50:55;;;;;;;3.63;1.70;;;28.50;88.30;;;;;;5028226;28;20212;-72
2022/06/18 09:53:26;;;;;;;3.03;1.92;;;28.40;88.80;;;;;;5027963;28;20278;-72
2022/06/18 09:55:57;;;;;;;4.60;2.10;;;28.60;88.70;;;;;;5028266;28;20213;-72
2022/06/18 09:58:28;;;;;;;3.75;2.00;;;28.50;88.60;;;;;;5028321;28;20221;-71
2022/06/18 10:00:58;;;;;;;5.75;2.05;;;28.60;89.30;;;;;;5028000;28;20208;-72
2022/06/18 10:09:06;;;;;;;4.75;1.98;;;29.00;87.90;;;;;;5027833;28;20273;-73
2022/06/18 10:11:34;;;;;;;3.92;1.83;;;29.10;87.90;;;;;;5028059;28;20228;-72
2022/06/18 10:14:07;;;;;;;6.72;2.08;;;29.20;87.60;;;;;;5027960;28;20208;-72
2022/06/18 10:16:44;;;;;;;3.25;1.88;;;29.30;87.00;;;;;;5021433;28;20874;-72
2022/06/18 10:19:21;;;;;;;5.65;1.88;;;29.40;86.70;;;;;;5017125;28;20204;-72
2022/06/18 10:21:55;;;;;;;2.50;2.30;;;29.30;87.10;;;;;;5028084;28;20208;-72
2022/06/18 10:24:32;;;;;;;5.93;2.97;;;29.50;87.10;;;;;;5027620;28;20205;-72
2022/06/18 10:27:08;;;;;;;3.72;2.10;;;29.60;86.70;;;;;;5027772;28;20204;-72
2022/06/18 10:29:40;;;;;;;2.85;2.10;;;29.60;86.20;;;;;;5027818;28;20196;-72
2022/06/18 10:32:27;;;;;;;2.60;2.05;;;29.70;85.80;;;;;;5028022;28;20193;-72
2022/06/18 10:35:16;;;;;;;2.60;2.40;;;29.80;86.90;;;;;;5027865;28;20210;-72
2022/06/18 10:37:53;;;;;;;3.90;1.92;;;29.90;85.90;;;;;;5027836;28;20244;-73
2022/06/18 10:40:28;;;;;;;2.67;2.22;;;30.00;86.00;;;;;;5027425;28;20560;-72
2022/06/18 10:43:12;;;;;;;5.40;2.25;;;30.20;84.70;;;;;;5028157;28;20200;-73
2022/06/18 10:45:42;;;;;;;5.72;2.00;;;30.20;85.30;;;;;;5027748;28;20215;-72
2022/06/18 10:48:11;;;;;;;5.90;2.33;;;30.40;84.00;;;;;;5027819;28;20204;-73
2022/06/18 10:50:44;;;;;;;5.97;2.33;;;30.50;83.90;;;;;;5027810;28;20612;-73
2022/06/18 10:53:16;;;;;;;3.67;2.30;;;30.60;83.60;;;;;;5027457;28;20193;-73
2022/06/18 10:55:43;;;;;;;3.33;2.30;;;30.70;83.30;;;;;;5027760;28;20203;-73
2022/06/18 10:58:13;;;;;;;3.95;1.90;;;30.60;83.50;;;;;;5027451;28;20307;-72
2022/06/18 11:00:42;;;;;;;4.95;2.20;;;30.50;84.10;;;;;;5027899;28;20228;-72
2022/06/18 11:03:20;;;;;;;3.05;2.30;;;30.80;82.10;;;;;;5027676;28;20209;-72
2022/06/18 11:05:48;;;;;;;5.32;2.20;;;30.90;82.10;;;;;;5027299;28;20563;-72
2022/06/18 11:08:21;;;;;;;4.45;2.28;;;30.90;80.50;;;;;;5026748;28;20209;-72
2022/06/18 11:10:53;;;;;;;3.88;2.28;;;31.00;81.80;;;;;;5027268;28;20235;-72
2022/06/18 11:13:26;;;;;;;6.88;2.50;;;31.00;81.80;;;;;;5030490;28;20197;-72
2022/06/18 11:16:13;;;;;;;2.97;2.50;;;31.10;81.10;;;;;;5030807;28;20244;-72
2022/06/18 11:18:49;;;;;;;6.35;2.22;;;31.30;80.50;;;;;;5031075;28;20707;-72
2022/06/18 11:21:32;;;;;;;5.88;2.20;;;31.40;81.20;;;;;;5031312;28;20192;-72
2022/06/18 11:24:02;;;;;;;4.22;2.72;;;31.50;78.80;;;;;;5031027;28;20197;-72
2022/06/18 11:26:30;;;;;;;9.10;2.70;;;31.60;78.00;;;;;;5031133;28;20193;-73
2022/06/18 11:29:04;;;;;;;6.18;2.60;;;31.70;78.10;;;;;;5030981;28;20213;-73
2022/06/18 11:31:35;;;;;;;3.88;2.28;;;31.70;78.50;;;;;;5030812;28;20660;-72
2022/06/18 11:34:05;;;;;;;5.97;2.75;;;31.90;77.70;;;;;;5030927;28;20207;-72
2022/06/18 11:36:35;;;;;;;6.90;2.65;;;31.90;78.60;;;;;;5030509;28;20663;-72
2022/06/18 11:39:03;;;;;;;8.68;2.67;;;31.90;78.00;;;;;;5030643;28;20237;-72
2022/06/18 11:41:38;;;;;;;4.65;2.72;;;32.00;77.30;;;;;;5030418;28;20205;-72
2022/06/18 11:44:11;;;;;;;11.00;9.15;;;32.00;76.90;;;;;;5030660;28;20216;-73
2022/06/18 11:46:44;;;;;;;7.57;4.40;;;32.00;77.10;;;;;;5030290;28;20721;-72
2022/06/18 11:49:16;;;;;;;12.63;9.00;;;32.10;77.40;;;;;;5030737;28;20207;-73
2022/06/18 11:51:48;;;;;;;10.15;2.88;;;32.20;78.40;;;;;;5030469;28;20288;-72
2022/06/18 11:54:26;;;;;;;8.85;2.60;;;32.30;77.80;;;;;;5030284;28;20201;-72
2022/06/18 11:56:58;;;;;;;7.57;2.60;;;32.40;77.60;;;;;;5030534;28;20196;-73
2022/06/18 11:59:35;;;;;;;6.07;2.85;;;32.50;78.20;;;;;;5030258;28;20225;-72
2022/06/18 12:02:08;;;;;;;5.93;2.45;;;32.60;77.00;;;;;;5030408;28;20211;-72
2022/06/18 12:04:39;;;;;;;12.80;3.40;;;32.70;77.10;;;;;;5030394;28;20217;-73
2022/06/18 12:07:14;;;;;;;8.38;3.08;;;32.80;77.40;;;;;;5030240;28;20200;-73
2022/06/18 12:09:42;;;;;;;6.35;2.70;;;32.90;76.30;;;;;;5030071;28;20231;-73
2022/06/18 12:12:29;;;;;;;5.80;2.72;;;33.00;76.40;;;;;;5030336;28;20208;-73
2022/06/18 12:15:03;;;;;;;5.57;3.10;;;33.00;76.30;;;;;;5029960;28;20331;-73
2022/06/18 12:17:37;;;;;;;5.45;2.90;;;33.20;75.50;;;;;;5030050;28;20192;-72
2022/06/18 12:20:12;;;;;;;5.40;2.75;;;33.30;75.90;;;;;;5013562;28;20237;-73
2022/06/18 12:22:46;;;;;;;6.90;3.10;;;33.40;76.10;;;;;;5010282;28;20201;-72
2022/06/18 12:25:30;;;;;;;10.63;2.83;;;33.40;75.50;;;;;;5017803;28;20294;-72
2022/06/18 12:28:05;;;;;;;12.60;3.28;;;33.40;75.60;;;;;;5030113;28;20236;-73
2022/06/18 12:30:37;;;;;;;9.38;3.15;;;33.40;75.20;;;;;;5029747;28;20208;-71
2022/06/18 12:33:12;;;;;;;10.05;2.88;;;33.50;75.30;;;;;;5030121;28;20563;-73
2022/06/18 12:35:47;;;;;;;10.95;3.20;;;33.50;75.40;;;;;;5029725;28;20232;-72
2022/06/18 12:38:24;;;;;;;8.82;3.13;;;33.60;74.20;;;;;;5029660;28;20227;-72
2022/06/18 12:40:59;;;;;;;8.35;3.17;;;33.50;74.90;;;;;;5029829;28;20196;-72
2022/06/18 12:43:31;;;;;;;10.50;3.63;;;33.70;74.70;;;;;;5029549;28;20201;-72
2022/06/18 12:46:10;;;;;;;15.05;3.75;;;33.80;74.20;;;;;;5029615;28;20189;-72
2022/06/18 12:48:48;;;;;;;9.00;3.42;;;33.80;73.60;;;;;;5029397;28;20751;-72
2022/06/18 12:51:22;;;;;;;8.65;3.55;;;33.90;74.20;;;;;;5029434;28;20275;-72
2022/06/18 12:54:09;;;;;;;7.57;4.15;;;33.80;73.80;;;;;;5029256;28;20201;-73
2022/06/18 12:56:40;;;;;;;12.05;3.67;;;33.80;73.70;;;;;;5029270;28;20205;-72
2022/06/18 12:59:16;;;;;;;11.10;3.60;;;33.90;74.40;;;;;;5009844;28;20237;-72
2022/06/18 13:01:51;;;;;;;7.18;3.40;;;34.10;73.40;;;;;;5017973;28;20204;-72
2022/06/18 13:04:38;;;;;;;8.57;3.30;;;34.10;73.30;;;;;;5009368;28;20201;-72
2022/06/18 13:07:11;;;;;;;9.23;3.53;;;34.10;73.00;;;;;;5009479;28;20193;-72
2022/06/18 13:09:47;;;;;;;7.80;3.22;;;34.20;73.00;;;;;;5028024;28;20247;-72
2022/06/18 13:12:32;;;;;;;11.43;3.55;;;34.40;71.80;;;;;;5028842;28;20208;-72
2022/06/18 13:15:09;;;;;;;7.38;3.50;;;34.40;71.80;;;;;;5028712;28;20208;-73
2022/06/18 13:17:42;;;;;;;7.18;3.50;;;34.50;72.40;;;;;;5028608;28;20197;-72
2022/06/18 13:20:17;;;;;;;9.57;3.58;;;34.60;72.10;;;;;;5028790;28;20675;-72